Latest Weather Observations for Holsworthy

IDN60801

Issued at 4:52 am EDT Friday 22 February 2019 (issued every 10 minutes, with the page automatically refreshed every 10 minutes)

About weather observations | Map of weather stations | Latest weather observations for NSW | Other Formats
Station Details ID: 066161 Name: HOLSWORTHY AERODROME AWS Lat: -33.99 Lon: 150.95 Height: 68.16 m
Data from the previous 72 hours. | See also: Recent months at Holsworthy
Date/Time
EDT
Temp
°C
App
Temp
°C
Dew
Point
°C
Rel
Hum
%
Delta-T
°C
Wind Press
QNH
hPa
Press
MSL
hPa
Rain since
9am
mm
Dir  Spd
km/h
Gust
km/h
Spd
kts
Gust
kts
22/04:30am 18.0 17.6 16.3 90 1.0 SSW 13 20 7 11 1019.0 1018.7 6.4
22/04:00am 18.4 18.3 16.9 91 0.9 S 13 20 7 11 1019.1 1018.8 6.4
22/03:30am 18.4 18.7 17.1 92 0.8 S 11 19 6 10 1019.1 1018.8 6.4
22/03:19am 18.5 18.9 17.3 93 0.7 SSW 11 19 6 10 1019.1 1018.8 6.4
22/03:01am 18.5 19.0 17.5 94 0.6 SSW 11 13 6 7 1019.3 1019.0 6.2
22/03:00am 18.5 19.0 17.5 94 0.6 SSW 11 15 6 8 1019.3 1019.0 6.2
22/02:44am 18.6 18.7 17.4 93 0.7 S 13 17 7 9 1019.3 1019.0 5.4
22/02:30am 18.6 18.3 17.4 93 0.7 SSW 15 20 8 11 1019.2 1018.9 5.2
22/02:27am 18.6 18.3 17.4 93 0.7 SSW 15 20 8 11 1019.2 1018.9 5.2
22/02:00am 18.7 19.2 17.5 93 0.7 SSW 11 15 6 8 1019.4 1019.1 4.6
22/01:30am 18.6 19.4 17.4 93 0.7 SSW 9 15 5 8 1019.6 1019.3 4.6
22/01:00am 18.7 18.8 17.5 93 0.7 S 13 19 7 10 1019.8 1019.5 4.4
22/12:30am 18.8 18.5 17.3 91 0.9 S 15 20 8 11 1019.9 1019.6 4.2
22/12:00am 18.7 19.5 17.2 91 0.9 S 9 15 5 8 1019.9 1019.6 4.2
 
Date/Time
EDT
Temp
°C
App
Temp
°C
Dew
Point
°C
Rel
Hum
%
Delta-T
°C
Wind Press
QNH
hPa
Press
MSL
hPa
Rain since
9am
mm
Dir  Spd
km/h
Gust
km/h
Spd
kts
Gust
kts
21/11:30pm 18.9 19.1 17.6 92 0.8 SSW 13 17 7 9 1019.9 1019.6 4.2
21/11:00pm 18.7 20.1 17.7 94 0.6 SW 7 11 4 6 1019.8 1019.5 4.2
21/10:30pm 18.7 20.1 17.7 94 0.6 SW 7 9 4 5 1019.8 1019.5 4.2
21/10:00pm 18.6 18.6 17.3 92 0.8 S 13 20 7 11 1019.8 1019.5 3.0
21/09:47pm 19.0 19.0 17.3 90 1.0 S 13 24 7 13 1019.7 1019.4 0.8
21/09:30pm 19.2 20.0 17.3 89 1.2 S 9 15 5 8 1019.6 1019.3 0.2
21/09:00pm 20.3 19.6 16.3 78 2.4 S 15 22 8 12 1019.1 1018.8 0.0
21/08:30pm 20.4 20.8 16.4 78 2.4 S 9 13 5 7 1018.8 1018.5 0.0
21/08:00pm 20.4 20.1 16.4 78 2.4 S 13 20 7 11 1018.3 1018.0 0.0
21/07:30pm 20.8 20.1 16.4 76 2.7 S 15 22 8 12 1017.9 1017.6 0.0
21/07:00pm 20.9 19.9 16.5 76 2.7 S 17 24 9 13 1017.6 1017.3 0.0
21/06:30pm 20.8 19.9 16.8 78 2.4 S 17 26 9 14 1017.2 1016.9 0.0
21/06:00pm 20.6 19.2 16.6 78 2.4 SSE 19 28 10 15 1017.0 1016.7 0.0
21/05:30pm 21.5 20.2 16.9 75 2.8 SSE 19 28 10 15 1016.7 1016.4 0.0
21/05:00pm 23.2 21.9 17.2 69 3.7 SE 20 30 11 16 1016.3 1016.0 0.0
21/04:30pm 23.6 21.6 17.3 67 3.9 SE 24 32 13 17 1016.1 1015.8 0.0
21/04:00pm 23.9 22.6 17.2 66 4.2 SSE 20 30 11 16 1016.2 1015.9 0.0
21/03:30pm 23.6 21.8 16.9 66 4.1 SSE 22 30 12 16 1016.4 1016.1 0.0
21/03:00pm 24.1 22.9 17.1 65 4.3 SSE 19 28 10 15 1016.6 1016.3 0.0
21/02:30pm 23.8 22.3 16.8 65 4.3 SE 20 30 11 16 1016.8 1016.5 0.0
21/02:00pm 24.2 23.9 17.4 65 4.2 SSE 15 22 8 12 1016.8 1016.5 0.0
21/01:30pm 23.5 22.8 17.3 68 3.8 SE 17 20 9 11 1016.9 1016.6 0.0
21/01:00pm 23.1 22.3 17.1 69 3.7 SSE 17 22 9 12 1017.0 1016.7 0.0
21/12:30pm 23.3 22.9 17.1 68 3.8 SSE 15 20 8 11 1017.1 1016.8 0.0
21/12:00pm 23.1 21.7 16.9 68 3.8 SSE 20 28 11 15 1017.1 1016.8 0.0
21/11:30am 23.5 22.2 17.3 68 3.8 SSE 20 28 11 15 1017.1 1016.8 0.0
21/11:00am 23.1 22.6 17.8 72 3.3 SSE 17 24 9 13 1017.0 1016.7 0.0
21/10:30am 22.8 22.2 17.5 72 3.3 SSE 17 26 9 14 1016.9 1016.6 0.0
21/10:00am 22.4 21.8 17.5 74 3.0 S 17 24 9 13 1016.6 1016.3 0.0
21/09:30am 22.4 21.4 17.5 74 3.0 S 19 26 10 14 1016.4 1016.1 0.0
21/09:00am 21.8 22.2 18.2 80 2.2 S 13 20 7 11 1016.2 1015.9 0.0
21/08:30am 20.8 21.0 17.6 82 2.0 S 13 17 7 9 1015.8 1015.5 0.0
21/08:00am 20.5 21.1 17.7 84 1.7 S 11 17 6 9 1015.4 1015.1 0.0
21/07:30am 20.1 21.1 17.7 86 1.5 S 9 15 5 8 1015.1 1014.8 0.0
21/07:00am 19.9 20.6 17.9 88 1.2 SSW 11 15 6 8 1014.8 1014.5 0.0
21/06:30am 19.6 20.7 17.9 90 1.0 SSW 9 11 5 6 1014.4 1014.0 0.0
21/06:00am 19.7 20.7 17.8 89 1.2 SSW 9 15 5 8 1014.0 1013.7 0.0
21/05:30am 19.7 20.8 18.0 90 1.1 S 9 13 5 7 1013.7 1013.4 0.0
21/05:00am 19.8 20.9 17.9 89 1.2 S 9 13 5 7 1013.5 1013.2 0.0
21/04:30am 20.1 20.9 18.1 88 1.2 SSE 11 17 6 9 1013.4 1013.1 0.0
21/04:00am 20.2 20.7 18.3 89 1.2 SSE 13 19 7 10 1013.4 1013.1 0.0
21/03:30am 20.1 21.1 18.6 91 0.9 SSE 11 17 6 9 1013.5 1013.2 0.0
21/03:00am 20.2 21.1 18.5 90 1.1 S 11 15 6 8 1013.4 1013.1 0.0
21/02:30am 20.6 21.4 18.2 86 1.5 SSE 11 15 6 8 1013.5 1013.2 0.0
21/02:00am 20.5 21.6 18.1 86 1.5 S 9 17 5 9 1013.5 1013.2 0.0
21/01:30am 20.5 21.6 18.1 86 1.5 S 9 13 5 7 1013.8 1013.5 0.0
21/01:00am 20.8 21.6 18.2 85 1.6 SSE 11 15 6 8 1013.8 1013.5 0.0
21/12:30am 21.0 21.1 18.4 85 1.6 SSE 15 22 8 12 1013.8 1013.5 0.0
21/12:00am 21.3 21.6 18.7 85 1.6 SSE 15 20 8 11 1013.7 1013.4 0.0
 
Date/Time
EDT
Temp
°C
App
Temp
°C
Dew
Point
°C
Rel
Hum
%
Delta-T
°C
Wind Press
QNH
hPa
Press
MSL
hPa
Rain since
9am
mm
Dir  Spd
km/h
Gust
km/h
Spd
kts
Gust
kts
20/11:30pm 21.1 21.4 18.7 86 1.5 SSE 15 24 8 13 1013.7 1013.4 0.0
20/11:00pm 21.1 22.0 18.5 85 1.6 SSE 11 15 6 8 1013.7 1013.4 0.0
20/10:30pm 21.1 21.7 18.5 85 1.6 SSE 13 19 7 10 1013.7 1013.4 0.0
20/10:00pm 21.2 22.1 18.4 84 1.8 SSE 11 15 6 8 1013.6 1013.3 0.0
20/09:30pm 21.2 21.8 18.6 85 1.6 SSE 13 15 7 8 1013.2 1012.9 0.0
20/09:00pm 21.1 22.0 18.5 85 1.6 SSE 11 15 6 8 1012.8 1012.5 0.0
20/08:57pm 21.0 21.9 18.4 85 1.6 SSE 11 15 6 8 1012.8 1012.5 0.0
20/08:30pm 20.9 21.8 18.3 85 1.6 SSE 11 17 6 9 1012.4 1012.1 0.0
20/08:00pm 20.8 21.6 18.2 85 1.6 SSE 11 15 6 8 1012.0 1011.7 0.0
20/07:30pm 20.9 21.0 18.3 85 1.6 SSE 15 22 8 12 1011.5 1011.2 0.0
20/07:00pm 21.0 20.3 18.2 84 1.7 SE 19 28 10 15 1011.2 1010.9 0.0
20/06:30pm 21.3 20.5 18.1 82 2.0 SSE 19 28 10 15 1011.0 1010.7 0.0
20/06:29pm 21.3 20.5 18.1 82 2.0 SSE 19 28 10 15 1011.0 1010.7 0.0
20/06:00pm 21.6 20.7 18.2 81 2.1 SSE 20 30 11 16 1010.5 1010.2 0.0
20/05:30pm 22.0 21.6 18.0 78 2.5 SSE 17 28 9 15 1010.5 1010.2 0.0
20/05:00pm 22.5 22.3 17.6 74 3.0 SSE 15 22 8 12 1010.3 1010.0 0.0
20/04:30pm 22.8 21.9 17.7 73 3.2 SSE 19 26 10 14 1010.3 1010.0 0.0
20/04:00pm 23.0 23.0 18.1 74 3.1 SSE 15 22 8 12 1010.5 1010.2 0.0
20/03:30pm 23.5 23.0 17.9 71 3.5 SSE 17 24 9 13 1010.7 1010.4 0.0
20/03:00pm 23.3 22.4 17.7 71 3.5 SE 19 24 10 13 1010.9 1010.6 0.0
20/02:30pm 24.0 24.4 18.9 73 3.2 SSE 15 22 8 12 1011.1 1010.8 0.0
20/02:00pm 22.1 22.2 18.3 79 2.4 SSE 15 22 8 12 1011.4 1011.1 0.0
20/01:37pm 21.6 21.3 18.2 81 2.1 SSE 17 20 9 11 1011.6 1011.3 0.0
20/01:30pm 21.4 20.9 17.8 80 2.2 SSE 17 24 9 13 1011.7 1011.4 0.0
20/01:04pm 21.7 21.5 17.7 78 2.5 SSE 15 24 8 13 1011.9 1011.6 0.0
20/01:03pm 21.7 21.5 17.7 78 2.5 SSE 15 24 8 13 1011.9 1011.6 0.0
20/01:00pm 21.9 21.5 18.1 79 2.4 SSE 17 24 9 13 1011.8 1011.5 0.0
20/12:30pm 21.3 21.6 17.9 81 2.1 S 13 19 7 10 1012.0 1011.7 0.0
20/12:25pm 21.4 22.2 18.2 82 2.0 S 11 19 6 10 1012.1 1011.8 0.0
20/12:00pm 21.2 21.5 17.8 81 2.1 S 13 17 7 9 1012.3 1012.0 0.0
20/11:30am 21.0 22.1 18.0 83 1.9 S 9 15 5 8 1012.6 1012.3 0.0
20/11:00am 20.4 20.4 18.0 86 1.5 S 15 24 8 13 1012.6 1012.3 0.0
20/10:30am 20.0 21.1 18.0 88 1.2 S 9 15 5 8 1012.6 1012.3 0.0
20/10:00am 19.7 21.3 18.2 91 0.9 SW 7 13 4 7 1012.6 1012.3 0.0
20/09:54am 19.6 20.7 17.9 90 1.0 SSW 9 13 5 7 1012.6 1012.3 0.0
20/09:30am 19.2 20.6 17.7 91 0.9 SW 7 13 4 7 1012.6 1012.3 0.0
20/09:11am 19.3 20.8 18.1 93 0.7 WSW 7 11 4 6 1012.6 1012.3 0.0
20/09:00am 19.3 20.8 18.0 92 0.8 SW 7 13 4 7 1012.6 1012.3 1.0
20/08:56am 19.2 20.9 18.0 93 0.7 WSW 6 9 3 5 1012.5 1012.2 1.0
20/08:30am 19.0 20.5 17.7 92 0.8 WNW 6 7 3 4 1012.3 1012.0 1.0
20/08:26am 19.0 20.5 17.7 92 0.8 NW 6 7 3 4 1012.3 1012.0 1.0
20/08:00am 19.3 20.5 17.4 89 1.2 SW 7 13 4 7 1012.0 1011.7 1.0
20/07:30am 18.9 20.6 17.2 90 1.0 NW 4 9 2 5 1011.9 1011.6 1.0
20/07:00am 19.0 21.2 17.5 91 0.9 W 2 7 1 4 1011.8 1011.5 0.8
20/06:30am 19.1 20.5 17.4 90 1.0 WSW 6 9 3 5 1011.7 1011.4 0.8
20/06:00am 19.2 20.4 16.8 86 1.5 SSW 6 11 3 6 1011.4 1011.1 0.8
20/05:30am 19.7 20.8 16.7 83 1.8 SW 6 7 3 4 1011.5 1011.2 0.8
20/05:00am 19.7 20.1 16.3 81 2.0 SSW 9 13 5 7 1011.2 1010.9 0.8
20/04:30am 19.7 20.6 16.5 82 1.9 SSW 7 11 4 6 1011.2 1010.9 0.8
20/04:00am 19.6 20.0 16.4 82 1.9 SSW 9 11 5 6 1011.3 1011.0 0.8
20/03:30am 19.5 20.1 16.7 84 1.7 SSW 9 13 5 7 1011.5 1011.2 0.6
20/03:00am 19.5 20.7 16.9 85 1.6 SSW 6 9 3 5 1011.7 1011.4 0.6
20/02:30am 19.2 20.3 17.0 87 1.3 SSW 7 11 4 6 1011.9 1011.6 0.6
20/02:00am 19.2 19.9 17.0 87 1.3 S 9 15 5 8 1012.3 1012.0 0.6
20/01:30am 19.4 19.8 17.2 87 1.3 SSW 11 15 6 8 1012.7 1012.4 0.4
20/01:00am 19.5 20.1 16.9 85 1.6 SW 9 13 5 7 1013.0 1012.7 0.2
20/12:30am 20.3 20.8 16.5 79 2.3 SSW 9 15 5 8 1013.3 1013.0 0.0
20/12:00am 20.2 20.6 16.4 79 2.3 SSW 9 17 5 9 1013.3 1013.0 0.0
 
Date/Time
EDT
Temp
°C
App
Temp
°C
Dew
Point
°C
Rel
Hum
%
Delta-T
°C
Wind Press
QNH
hPa
Press
MSL
hPa
Rain since
9am
mm
Dir  Spd
km/h
Gust
km/h
Spd
kts
Gust
kts
19/11:30pm 20.2 19.9 16.4 79 2.3 SSW 13 24 7 13 1013.3 1013.0 0.0
19/11:00pm 20.2 19.6 16.6 80 2.2 SSW 15 20 8 11 1013.2 1012.9 0.0
19/10:30pm 20.2 19.6 16.6 80 2.2 SSW 15 24 8 13 1013.1 1012.8 0.0
19/10:00pm 20.3 19.6 16.5 79 2.3 SSW 15 22 8 12 1013.2 1012.9 0.0
19/09:30pm 20.3 19.3 16.5 79 2.3 S 17 24 9 13 1012.9 1012.6 0.0
19/09:00pm 20.4 19.4 16.6 79 2.3 S 17 28 9 15 1012.2 1011.9 0.0
19/08:30pm 20.4 19.0 16.6 79 2.3 SSW 19 30 10 16 1011.7 1011.4 0.0
19/08:00pm 20.9 20.3 16.7 77 2.6 SSW 15 22 8 12 1011.3 1011.0 0.0
19/07:30pm 21.1 20.1 16.7 76 2.7 SSW 17 32 9 17 1010.7 1010.4 0.0
19/07:00pm 21.9 20.7 17.1 74 3.0 S 19 32 10 17 1009.9 1009.6 0.0
19/06:30pm 22.2 20.1 17.1 73 3.1 S 24 43 13 23 1009.5 1009.2 0.0
19/06:00pm 23.2 22.1 17.2 69 3.7 S 19 32 10 17 1009.2 1008.9 0.0
19/05:30pm 23.4 20.9 17.2 68 3.8 S 26 37 14 20 1008.3 1008.0 0.0
19/05:00pm 23.5 20.2 17.0 67 4.0 SSE 30 50 16 27 1007.9 1007.6 0.0
19/04:36pm 24.2 21.6 17.7 67 4.1 SSE 28 46 15 25 1007.2 1006.9 0.0
19/04:30pm 23.7 20.6 17.4 68 3.9 SSE 30 46 16 25 1006.9 1006.6 0.0
19/04:00pm 23.0 20.3 17.5 71 3.4 SSE 28 46 15 25 1006.9 1006.6 0.0
19/03:48pm 22.8 19.6 17.3 71 3.4 SSE 30 48 16 26 1006.6 1006.3 0.0
19/03:30pm 21.9 18.1 17.1 74 3.0 SSE 33 50 18 27 1006.6 1006.3 0.0
19/03:08pm 21.9 18.3 17.7 77 2.6 SSE 33 52 18 28 1006.4 1006.1 0.0
19/03:00pm 21.9 18.2 17.5 76 2.7 SSE 33 48 18 26 1006.8 1006.5 0.0
19/02:36pm 22.4 19.4 19.0 81 2.2 SSE 33 52 18 28 1006.5 1006.2 0.0
19/02:30pm 21.3 17.1 17.1 77 2.6 SSE 35 52 19 28 1006.6 1006.3 0.0
19/02:16pm 22.9 18.9 16.7 68 3.8 SSE 33 52 18 28 1006.8 1006.5 0.0
19/02:00pm 25.2 21.0 17.1 60 5.1 SSE 35 52 19 28 1006.6 1006.3 0.0
19/01:46pm 25.5 21.8 16.9 59 5.3 SSE 32 50 17 27 1006.3 1006.0 0.0
19/01:30pm 26.1 21.7 17.5 59 5.4 SSE 37 52 20 28 1006.4 1006.1 0.0
19/01:16pm 25.9 21.6 17.0 58 5.5 SSE 35 54 19 29 1006.4 1006.1 0.0
19/01:00pm 26.9 24.4 17.1 55 6.1 SSE 26 41 14 22 1006.4 1006.1 0.0
19/12:30pm 26.6 23.3 17.1 56 5.9 SE 30 37 16 20 1006.5 1006.2 0.0
19/12:00pm 27.0 24.5 17.2 55 6.2 SSE 26 37 14 20 1006.6 1006.3 0.0
19/11:30am 28.1 26.7 17.9 54 6.5 SSE 22 35 12 19 1006.5 1006.2 0.0
19/11:00am 29.3 28.7 18.4 51 7.0 SE 19 24 10 13 1006.5 1006.2 0.0
19/10:30am 29.5 30.7 18.3 51 7.2 SSE 9 17 5 9 1006.5 1006.2 0.0
19/10:00am 27.5 28.5 17.7 55 6.2 SE 9 13 5 7 1006.4 1006.1 0.0
19/09:30am 25.9 26.4 18.3 63 4.8 S 13 15 7 8 1006.3 1006.0 0.0
19/09:00am 25.5 27.1 19.2 68 4.1 SSE 9 17 5 9 1006.3 1006.0 0.0
19/08:30am 23.8 25.8 19.1 75 3.0 SSW 7 9 4 5 1006.3 1006.0 0.0
19/08:00am 22.9 25.1 19.1 79 2.4 SW 6 7 3 4 1005.9 1005.6 0.0
19/07:30am 22.5 25.6 19.5 83 1.9 E 2 6 1 3 1005.7 1005.4 0.0
19/07:00am 21.5 23.7 19.1 86 1.5 SSE 6 6 3 3 1005.7 1005.4 0.0
19/06:30am 21.1 23.7 18.5 85 1.6 S 2 7 1 4 1005.9 1005.6 0.0
19/06:00am 21.8 24.0 19.2 85 1.7 SSW 6 7 3 4 1005.7 1005.4 0.0
19/05:30am 21.8 23.8 18.8 83 1.9 SSW 6 9 3 5 1005.6 1005.3 0.0
19/05:00am 22.4 24.5 19.0 81 2.2 E 6 11 3 6 1005.3 1005.0 0.0

Other formats

Comma delimited format used in spreadsheet applications
http://www.bom.gov.au/fwo/IDN60801/IDN60801.95761.axf

JavaScript Object Notation format (JSON) in row-major order
http://www.bom.gov.au/fwo/IDN60801/IDN60801.95761.json

Data quality

Most of these data are generated automatically and are frequently updated. Quality checks on data are not normally performed. It is possible for incorrect values to appear. Refer to information at About Latest Weather Observations and please check the disclaimer before using these data.